ADDS METAR Data INFO
IDs: Format: Raw Decoded Include TAF

Data at: 1342 UTC 25 Feb 2018

K0VG 251330Z AUTO 27008KT 10SM CLR 13/12 A3006 RMK AO2
K0VG 251310Z AUTO 25003KT 10SM CLR 13/13 A3005 RMK AO2
K0VG 251250Z AUTO 00000KT 9SM -RA CLR 13/13 A3003 RMK AO2 P0001
K0VG 251230Z AUTO 25004KT 10SM -RA CLR 13/13 A3003 RMK AO2
K0VG 251210Z AUTO 17004KT 10SM -RA FEW016 13/13 A3003 RMK AO2
K0VG 251150Z AUTO 16004KT 5SM RA CLR 13/12 A3001 RMK AO2 P0007
K0VG 251130Z AUTO 28007KT 5SM -RA CLR 14/13 A3002 RMK AO2 P0003
K0VG 251110Z AUTO 00000KT 5SM -RA FEW024 FEW030 14/14 A3001 RMK AO2 P0001
K0VG 251050Z AUTO 28004KT 6SM RA FEW013 FEW024 FEW030 14/14 A3001 RMK AO2 P0010
K0VG 251030Z AUTO 28004KT 5SM -RA FEW015 SCT024 SCT034 14/14 A3001 RMK AO2 P0007
K0VG 251010Z AUTO 26003KT 4SM RA CLR 14/14 A2999 RMK AO2 P0002
K0VG 250950Z AUTO 26007KT 3SM RA FEW019 FEW026 SCT036 14/13 A2998 RMK AO2 P0045
K0VG 250930Z AUTO 31010G15KT 2SM +RA SCT019 BKN036 15/14 A2996 RMK AO2 VSBY 1 1/2V3 P0021
K0VG 250910Z AUTO 30007KT 3SM RA BKN038 17/16 A2994 RMK AO2 P0004
K0VG 250850Z AUTO 00000KT 7SM -RA OVC042 15/15 A2992 RMK AO2 P0001
K0VG 250830Z AUTO 00000KT 5SM -RA BKN044 15/15 A2992 RMK AO2
K0VG 250810Z AUTO 00000KT 5SM -RA BKN044 15/15 A2992 RMK AO2
K0VG 250750Z AUTO 00000KT 7SM BKN046 15/15 A2994 RMK AO2
K0VG 250735Z AUTO 00000KT 7SM SCT048 15/15 A2994 RMK AO2
K0VG 250710Z AUTO 00000KT 6SM BR BKN048 BKN065 15/15 A2995 RMK AO2
K0VG 250650Z AUTO 00000KT 4SM BR FEW055 SCT065 15/15 A2996 RMK AO2 P0002
K0VG 250630Z AUTO 00000KT 9SM CLR 15/15 A2997 RMK AO2 P0002
K0VG 250610Z AUTO 22005KT 3SM -RA FEW016 FEW036 SCT048 16/15 A2999 RMK AO2 P0001
K0VG 250550Z AUTO 00000KT 5SM -RA FEW048 FEW055 15/15 A2996 RMK AO2
K0VG 250530Z AUTO 00000KT 8SM SCT055 15/15 A2996 RMK AO2
K0VG 250510Z AUTO 00000KT 7SM BKN065 15/15 A2996 RMK AO2
K0VG 250450Z AUTO 00000KT 9SM BKN050 BKN065 15/15 A2996 RMK AO2
K0VG 250430Z AUTO 00000KT 10SM BKN060 15/15 A2998 RMK AO2
K0VG 250410Z AUTO 20003KT 10SM OVC060 16/15 A2999 RMK AO2
K0VG 250350Z AUTO 31003KT 10SM OVC070 15/15 A2999 RMK AO2
K0VG 250330Z AUTO 00000KT 10SM BKN070 16/15 A2998 RMK AO2
K0VG 250310Z AUTO 00000KT 10SM SCT070 15/15 A2999 RMK AO2
K0VG 250250Z AUTO 00000KT 7SM FEW070 15/15 A2999 RMK AO2
K0VG 250230Z AUTO 00000KT 9SM FEW070 15/15 A3000 RMK AO2
K0VG 250210Z AUTO 00000KT 10SM SCT070 15/15 A2999 RMK AO2
K0VG 250150Z AUTO 00000KT 9SM FEW070 15/15 A2999 RMK AO2
K0VG 250130Z AUTO 07003KT 10SM FEW070 15/15 A2999 RMK AO2
K0VG 250110Z AUTO 00000KT 8SM CLR 15/15 A3000 RMK AO2
K0VG 250050Z AUTO 00000KT 10SM CLR 16/16 A3001 RMK AO2
K0VG 250030Z AUTO 07004KT 10SM FEW055 17/16 A3001 RMK AO2
K0VG 250010Z AUTO 00000KT 10SM BKN055 17/16 A3002 RMK AO2
K0VG 242350Z AUTO 00000KT 10SM BKN055 17/16 A3002 RMK AO2
K0VG 242330Z AUTO 00000KT 10SM CLR 17/16 A3003 RMK AO2
K0VG 242310Z AUTO 00000KT 10SM CLR 18/16 A3003 RMK AO2
K0VG 242250Z AUTO 00000KT 10SM CLR 18/16 A3003 RMK AO2
K0VG 242230Z AUTO 00000KT 10SM CLR 18/16 A3004 RMK AO2
K0VG 242210Z AUTO 27003KT 10SM CLR 18/16 A3005 RMK AO2
K0VG 242150Z AUTO 24003KT 10SM CLR 18/16 A3005 RMK AO2
K0VG 242130Z AUTO 00000KT 10SM CLR 18/16 A3005 RMK AO2
K0VG 242110Z AUTO 00000KT 10SM CLR 18/16 A3004 RMK AO2
K0VG 242050Z AUTO 23006KT 10SM CLR 18/16 A3005 RMK AO2 P0001
K0VG 242030Z AUTO 23004KT 10SM CLR 18/17 A3006 RMK AO2 P0001
K0VG 242010Z AUTO 24006KT 3SM -RA CLR 18/17 A3006 RMK AO2
K0VG 241950Z AUTO 22005KT 10SM CLR 19/17 A3006 RMK AO2 P0003
K0VG 241930Z AUTO 00000KT 4SM -RA CLR 19/17 A3006 RMK AO2 P0003
K0VG 241910Z AUTO 00000KT 10SM CLR 19/17 A3006 RMK AO2
K0VG 241850Z AUTO 00000KT 10SM CLR 19/17 A3007 RMK AO2 P0002
K0VG 241830Z AUTO 26003KT 7SM -RA CLR 19/16 A3008 RMK AO2 P0002
K0VG 241810Z AUTO 24012G17KT 7SM -RA CLR 20/14 A3009 RMK AO2
K0VG 241750Z AUTO 21009KT 10SM CLR 21/15 A3010 RMK AO2
K0VG 241730Z AUTO 20010G16KT 10SM CLR 21/15 A3011 RMK AO2
K0VG 241710Z AUTO 21009G15KT 10SM CLR 20/16 A3012 RMK AO2
K0VG 241650Z AUTO 23007KT 10SM CLR 19/16 A3013 RMK AO2
K0VG 241630Z AUTO 00000KT 10SM CLR 19/16 A3014 RMK AO2
K0VG 241610Z AUTO 00000KT 10SM CLR 18/16 A3015 RMK AO2
K0VG 241550Z AUTO 00000KT 10SM CLR 18/16 A3016 RMK AO2
K0VG 241530Z AUTO 00000KT 10SM CLR 17/16 A3016 RMK AO2
K0VG 241510Z AUTO 00000KT 10SM CLR 17/16 A3015 RMK AO2
K0VG 241450Z AUTO 00000KT 9SM CLR 15/15 A3016 RMK AO2
K0VG 241430Z AUTO 00000KT 10SM CLR 15/15 A3016 RMK AO2
K0VG 241410Z AUTO 00000KT 5SM BR CLR 14/14 A3017 RMK AO2
K0VG 241350Z AUTO 00000KT 5SM BR CLR 14/14 A3017 RMK AO2 P0002
K0VG 241330Z AUTO 00000KT 3SM BR CLR 13/13 A3018 RMK AO2 P0002
K0VG 241310Z AUTO 00000KT 1 3/4SM -RA CLR 13/13 A3018 RMK AO2 P0002
K0VG 241250Z AUTO 00000KT 2SM -RA CLR 13/13 A3018 RMK AO2 P0016
K0VG 241230Z AUTO 00000KT 2 1/2SM -RA CLR 13/13 A3018 RMK AO2 P0010
K0VG 241210Z AUTO 00000KT 1 3/4SM -RA CLR 13/13 A3019 RMK AO2 P0003
K0VG 241150Z AUTO 00000KT 2SM +RA CLR 13/12 A3018 RMK AO2 P0018
K0VG 241130Z AUTO 00000KT 3SM -RA CLR 13/13 A3018 RMK AO2 P0006
K0VG 241110Z AUTO 00000KT 3SM -RA CLR 13/13 A3017 RMK AO2 P0001
K0VG 241050Z AUTO 00000KT 7SM -RA CLR 13/12 A3018 RMK AO2 P0002
K0VG 241030Z AUTO 00000KT 7SM -RA SCT045 13/12 A3017 RMK AO2
K0VG 241010Z AUTO 00000KT 10SM BKN045 13/12 A3017 RMK AO2
K0VG 240950Z AUTO 00000KT 10SM BKN047 13/12 A3016 RMK AO2
K0VG 240930Z AUTO 00000KT 10SM FEW047 13/12 A3017 RMK AO2
K0VG 240910Z AUTO 00000KT 10SM CLR 13/12 A3017 RMK AO2
K0VG 240850Z AUTO 00000KT 10SM CLR 13/12 A3018 RMK AO2
K0VG 240830Z AUTO 00000KT 10SM FEW043 13/12 A3019 RMK AO2
K0VG 240810Z AUTO 00000KT 10SM CLR 12/12 A3020 RMK AO2
K0VG 240750Z AUTO 00000KT 10SM CLR 13/12 A3021 RMK AO2
K0VG 240730Z AUTO 00000KT 10SM CLR 13/12 A3021 RMK AO2
K0VG 240710Z AUTO 00000KT 10SM CLR 13/12 A3023 RMK AO2
K0VG 240650Z AUTO 00000KT 10SM CLR 13/12 A3023 RMK AO2
K0VG 240630Z AUTO 00000KT 10SM CLR 13/12 A3024 RMK AO2
K0VG 240610Z AUTO 00000KT 10SM CLR 13/12 A3024 RMK AO2
K0VG 240550Z AUTO 00000KT 10SM CLR 13/12 A3024 RMK AO2
K0VG 240530Z AUTO 00000KT 10SM CLR 13/12 A3025 RMK AO2
K0VG 240510Z AUTO 00000KT 10SM CLR 13/12 A3025 RMK AO2
K0VG 240450Z AUTO 00000KT 10SM CLR 13/12 A3025 RMK AO2
K0VG 240430Z AUTO 00000KT 10SM CLR 13/12 A3025 RMK AO2
K0VG 240410Z AUTO 00000KT 10SM CLR 13/12 A3026 RMK AO2
K0VG 240350Z AUTO 00000KT 10SM CLR 13/12 A3026 RMK AO2
K0VG 240330Z AUTO 00000KT 10SM CLR 13/12 A3027 RMK AO2
K0VG 240310Z AUTO 00000KT 10SM CLR 13/12 A3026 RMK AO2
K0VG 240250Z AUTO 00000KT 10SM CLR 14/12 A3026 RMK AO2
K0VG 240230Z AUTO 00000KT 10SM CLR 14/12 A3026 RMK AO2
K0VG 240210Z AUTO 00000KT 10SM CLR 14/12 A3026 RMK AO2
K0VG 240150Z AUTO 00000KT 10SM CLR 14/12 A3026 RMK AO2